LFLL Airport Information

Runway Information
Runway 17R Length 13124 ft width 148 ft Elevation 758 ft Threshold N/A Heading 175
Runway 35L Length 13124 ft Width 148 ft Elevation 813 ft Threshold N/A Heading 355
Runway 17L Length 8760 ft width 148 ft Elevation 780 ft Threshold N/A Heading 175
Runway 35R Length 8760 ft Width 148 ft Elevation 821 ft Threshold N/A Heading 355
Airport Frequencies
Type A/D Name Lyon appro Frequency 136.075 MHZ
Type ATIS Name ATIS Frequency 126.175 MHZ
Type GND Name GND Frequency 121.825 MHZ
Type INFO Name INFO Frequency 135.2 MHZ
Type PFLT Name PREFLIGHT Frequency 121.7 MHZ
Type TWR Name TWR Frequency 120.45 MHZ
Airport Navaids
Type VOR-DME Name Lyon/Saint Exupery Frequency 114750 KHZ
Airport Weather Information & NOTAM
METAR for:LFLL (Lyon/St-Exupéry Arpt, AR, FR)
Text:LFLL 240700Z AUTO 19011KT CAVOK 05/01 Q1003
Conditions at:0700 UTC 24 Feb 2024
Temperature: 5.0°C ( 41°F)
Dewpoint: 1.0°C ( 34°F) [RH = 75%]
Pressure (altimeter):29.62 inches Hg (1003.0 mb)
Winds:from the S (190 degrees) at 13 MPH (11 knots; 5.7 m/s)
Visibility:6 or more sm (10+ km)
Ceiling:ceiling and visibility are OK
Clouds:unknown